createdAt,value
2022-12-03T00:03:37.278Z,31.50
2022-12-03T00:08:40.737Z,33.40
2022-12-03T00:13:43.909Z,41.10
2022-12-03T00:18:47.074Z,37.80
2022-12-03T00:23:50.280Z,36.50
2022-12-03T00:28:55.014Z,40.70
2022-12-03T00:33:58.787Z,42.60
2022-12-03T00:39:02.046Z,36.10
2022-12-03T00:44:05.571Z,38.90
2022-12-03T00:49:08.972Z,34.00
2022-12-03T00:54:12.176Z,38.80
2022-12-03T00:59:15.425Z,39.10
2022-12-03T01:04:18.745Z,34.50
2022-12-03T01:09:22.133Z,45.00
2022-12-03T01:14:25.269Z,43.60
2022-12-03T01:19:28.569Z,38.20
2022-12-03T01:24:31.742Z,43.20
2022-12-03T01:29:35.532Z,42.10
2022-12-03T01:34:38.746Z,38.70
2022-12-03T01:39:42.601Z,26.90
2022-12-03T01:44:46.888Z,43.50
2022-12-03T01:49:54.529Z,31.80
2022-12-03T01:55:02.080Z,34.70
2022-12-03T02:00:07.125Z,38.00
2022-12-03T02:05:19.570Z,28.20
2022-12-03T02:10:32.383Z,37.30
2022-12-03T02:15:36.974Z,37.10
2022-12-03T02:21:09.849Z,39.80
2022-12-03T02:26:13.204Z,39.40
2022-12-03T02:31:16.541Z,30.20
2022-12-03T02:36:20.834Z,46.50
2022-12-03T02:41:43.135Z,43.10
2022-12-03T02:46:46.621Z,36.30
2022-12-03T02:51:50.167Z,46.30
2022-12-03T02:56:53.423Z,46.20
2022-12-03T03:01:56.712Z,42.20
2022-12-03T03:07:00.284Z,38.60
2022-12-03T03:12:03.577Z,39.90
2022-12-03T03:17:07.289Z,22.90
2022-12-03T03:22:12.005Z,36.90
2022-12-03T03:27:15.227Z,31.20
2022-12-03T03:32:18.611Z,31.40
2022-12-03T03:37:22.324Z,31.50
2022-12-03T03:42:25.763Z,27.40
2022-12-03T03:47:29.100Z,26.60
2022-12-03T03:52:32.425Z,34.70
2022-12-03T03:57:35.989Z,28.90
2022-12-03T04:02:39.169Z,28.60
2022-12-03T04:07:42.502Z,30.80
2022-12-03T04:12:57.834Z,27.30
2022-12-03T04:18:19.900Z,37.00
2022-12-03T04:23:29.309Z,21.50
2022-12-03T04:28:49.295Z,23.10
2022-12-03T04:34:12.473Z,34.20
2022-12-03T04:39:15.809Z,23.90
2022-12-03T04:44:36.414Z,27.60
2022-12-03T04:49:42.354Z,26.20
2022-12-03T04:54:45.608Z,35.60
2022-12-03T04:59:48.849Z,38.10
2022-12-03T05:04:52.444Z,28.20
2022-12-03T05:09:55.919Z,33.10
2022-12-03T05:14:59.085Z,28.60
2022-12-03T05:20:21.122Z,34.80
2022-12-03T05:25:24.315Z,35.80
2022-12-03T05:30:27.720Z,41.00
2022-12-03T05:35:30.962Z,30.60
2022-12-03T05:40:34.276Z,31.00
2022-12-03T05:45:40.464Z,39.30
2022-12-03T05:50:46.476Z,35.10
2022-12-03T05:55:49.577Z,41.00
2022-12-03T06:00:52.981Z,39.30
2022-12-03T06:05:56.167Z,29.80
2022-12-03T06:10:59.403Z,36.60
2022-12-03T06:16:02.555Z,34.60
2022-12-03T06:21:06.981Z,29.30
2022-12-03T06:26:12.161Z,39.00
2022-12-03T06:31:15.525Z,22.90
2022-12-03T06:36:22.826Z,28.50
2022-12-03T06:41:26.826Z,43.20
2022-12-03T06:46:30.487Z,33.00
2022-12-03T06:51:33.873Z,39.10
2022-12-03T06:56:43.370Z,36.10
2022-12-03T07:01:51.338Z,39.00
2022-12-03T07:06:54.572Z,26.90
2022-12-03T07:11:57.805Z,36.80
2022-12-03T07:17:00.952Z,39.50
2022-12-03T07:22:04.478Z,37.50
2022-12-03T07:27:08.207Z,40.10
2022-12-03T07:32:11.402Z,41.50
2022-12-03T07:37:18.633Z,37.40
2022-12-03T07:42:24.791Z,39.50
2022-12-03T07:47:28.142Z,35.80
2022-12-03T07:52:31.670Z,43.90
2022-12-03T07:57:34.989Z,37.80
2022-12-03T08:02:38.342Z,41.00
2022-12-03T08:07:42.088Z,43.10
2022-12-03T08:12:45.455Z,33.80
2022-12-03T08:17:55.299Z,40.10
2022-12-03T08:22:59.943Z,40.00
2022-12-03T08:28:13.037Z,41.50
2022-12-03T08:33:33.911Z,44.90
2022-12-03T08:38:37.409Z,42.50
2022-12-03T08:43:43.164Z,39.00
2022-12-03T08:48:49.277Z,35.50
2022-12-03T08:54:01.821Z,34.00
2022-12-03T08:59:35.328Z,39.50
2022-12-03T09:04:41.288Z,35.30
2022-12-03T09:09:44.530Z,41.80
2022-12-03T09:14:48.067Z,36.00
2022-12-03T09:19:51.241Z,36.90
2022-12-03T09:24:54.709Z,34.70
2022-12-03T09:29:58.491Z,40.70
2022-12-03T09:35:01.746Z,33.80
2022-12-03T09:40:07.258Z,37.10
2022-12-03T09:45:13.627Z,27.10
2022-12-03T09:50:25.611Z,26.50
2022-12-03T09:55:29.398Z,26.90
2022-12-03T10:00:32.602Z,36.30
2022-12-03T10:05:35.918Z,27.20
2022-12-03T10:10:42.043Z,28.90
2022-12-03T10:15:45.245Z,32.30
2022-12-03T10:20:49.219Z,31.30
2022-12-03T10:26:03.851Z,35.90
2022-12-03T10:31:10.253Z,30.30
2022-12-03T10:36:25.771Z,32.50
2022-12-03T10:41:29.569Z,29.70
2022-12-03T10:46:32.821Z,34.30
2022-12-03T10:51:38.376Z,36.00
2022-12-03T10:56:41.700Z,32.20
2022-12-03T11:01:46.037Z,26.30
2022-12-03T11:06:50.757Z,33.40
2022-12-03T11:11:54.730Z,27.50
2022-12-03T11:17:01.111Z,28.00
2022-12-03T11:22:06.933Z,32.30
2022-12-03T11:27:10.187Z,40.40
2022-12-03T11:32:38.303Z,39.00
2022-12-03T11:37:42.034Z,34.80
2022-12-03T11:42:47.439Z,35.90
2022-12-03T11:48:06.199Z,39.60
2022-12-03T11:53:31.739Z,34.20
2022-12-03T11:58:38.757Z,35.40
2022-12-03T12:03:45.725Z,32.50
2022-12-03T12:08:51.914Z,39.50
2022-12-03T12:14:00.835Z,32.40
2022-12-03T12:19:32.392Z,33.90
2022-12-03T12:24:40.673Z,39.90
2022-12-03T12:29:47.537Z,43.80
2022-12-03T12:34:54.920Z,39.60
2022-12-03T12:40:01.652Z,37.40
2022-12-03T12:45:07.585Z,39.40
2022-12-03T12:50:12.291Z,32.20
2022-12-03T12:55:17.076Z,35.10
2022-12-03T13:00:23.840Z,38.80
2022-12-03T13:05:41.160Z,34.70
2022-12-03T13:10:44.776Z,33.30
2022-12-03T13:15:50.772Z,35.40
2022-12-03T13:20:55.691Z,37.10
2022-12-03T13:26:17.360Z,40.90
2022-12-03T13:31:28.333Z,36.50
2022-12-03T13:36:39.604Z,31.10
2022-12-03T13:42:02.107Z,34.90
2022-12-03T13:47:22.871Z,38.90
2022-12-03T13:52:27.288Z,41.60
2022-12-03T13:57:30.629Z,41.10
2022-12-03T14:02:33.926Z,34.20
2022-12-03T14:07:38.973Z,44.40
2022-12-03T14:12:42.900Z,34.00
2022-12-03T14:17:46.132Z,43.20
2022-12-03T14:22:51.258Z,34.30
2022-12-03T14:27:56.272Z,42.30
2022-12-03T14:32:59.483Z,43.00
2022-12-03T14:38:02.931Z,35.70
2022-12-03T14:43:06.117Z,33.80
2022-12-03T14:48:09.347Z,40.20
2022-12-03T14:53:12.498Z,37.40
2022-12-03T14:58:16.730Z,43.00
2022-12-03T15:03:19.908Z,39.70
2022-12-03T15:08:23.149Z,22.90
2022-12-03T15:13:29.595Z,37.70
2022-12-03T15:18:34.797Z,49.70
2022-12-03T15:23:38.138Z,40.10
2022-12-03T15:28:46.704Z,40.90
2022-12-03T15:33:51.464Z,34.00
2022-12-03T15:38:54.682Z,38.70
2022-12-03T15:44:02.200Z,42.20
2022-12-03T15:49:05.390Z,29.30
2022-12-03T15:54:08.621Z,40.70
2022-12-03T15:59:13.267Z,33.80
2022-12-03T16:04:16.455Z,32.40
2022-12-03T16:09:25.306Z,39.60
2022-12-03T16:14:30.577Z,37.10
2022-12-03T16:19:33.829Z,39.70
2022-12-03T16:24:37.077Z,36.30
2022-12-03T16:29:40.848Z,30.30
2022-12-03T16:34:44.045Z,27.70
2022-12-03T16:39:47.386Z,36.70
2022-12-03T16:44:59.635Z,38.70
2022-12-03T16:50:05.493Z,34.60
2022-12-03T16:55:09.219Z,35.40
2022-12-03T17:00:13.113Z,30.50
2022-12-03T17:05:16.588Z,40.90
2022-12-03T17:10:19.909Z,41.90
2022-12-03T17:15:23.306Z,45.10
2022-12-03T17:20:26.524Z,38.40
2022-12-03T17:25:30.736Z,38.90
2022-12-03T17:30:33.996Z,43.90
2022-12-03T17:35:37.240Z,30.90
2022-12-03T17:40:40.446Z,40.80
2022-12-03T17:45:44.602Z,33.50
2022-12-03T17:50:48.939Z,40.20
2022-12-03T17:55:54.537Z,44.50
2022-12-03T18:01:02.335Z,36.00
2022-12-03T18:06:06.706Z,35.20
2022-12-03T18:11:09.915Z,39.80
2022-12-03T18:16:13.191Z,39.60
2022-12-03T18:21:16.398Z,46.20
2022-12-03T18:26:19.547Z,47.20
2022-12-03T18:31:22.881Z,41.10
2022-12-03T18:36:30.200Z,32.40
2022-12-03T18:41:34.011Z,44.40
2022-12-03T18:46:52.916Z,47.00
2022-12-03T18:51:59.540Z,44.00
2022-12-03T18:57:05.545Z,46.70
2022-12-03T19:02:53.724Z,36.80
2022-12-03T19:07:41.189Z,40.40
2022-12-03T19:12:44.369Z,56.80
2022-12-03T19:17:51.684Z,49.40
2022-12-03T19:22:54.992Z,46.40
2022-12-03T19:27:58.248Z,47.40
2022-12-03T19:33:01.451Z,50.20
2022-12-03T19:38:04.744Z,42.90
2022-12-03T19:43:08.197Z,37.30
2022-12-03T19:48:11.410Z,41.40
2022-12-03T19:53:14.540Z,42.60
2022-12-03T19:58:17.933Z,47.10
2022-12-03T20:03:21.138Z,42.00
2022-12-03T20:08:24.366Z,44.00
2022-12-03T20:13:30.846Z,42.20
2022-12-03T20:18:37.610Z,46.50
2022-12-03T20:23:42.255Z,52.10
2022-12-03T20:28:48.334Z,54.10
2022-12-03T20:33:54.750Z,49.70
2022-12-03T20:39:00.609Z,62.90
2022-12-03T20:44:06.606Z,66.90
2022-12-03T20:49:09.883Z,60.80
2022-12-03T20:54:13.393Z,55.80
2022-12-03T20:59:18.255Z,63.40
2022-12-03T21:04:21.970Z,58.80
2022-12-03T21:09:25.601Z,59.60
2022-12-03T21:14:29.926Z,38.80
2022-12-03T21:19:33.276Z,53.10
2022-12-03T21:24:36.484Z,48.10
2022-12-03T21:29:39.811Z,48.70
2022-12-03T21:34:43.025Z,51.70
2022-12-03T21:39:46.304Z,49.50
2022-12-03T21:44:49.597Z,55.10
2022-12-03T21:49:52.932Z,55.20
2022-12-03T21:54:58.392Z,53.00
2022-12-03T22:00:01.656Z,40.70
2022-12-03T22:05:05.097Z,51.10
2022-12-03T22:10:11.163Z,50.40
2022-12-03T22:15:18.672Z,47.90
2022-12-03T22:20:22.779Z,45.90
2022-12-03T22:25:26.042Z,54.70
2022-12-03T22:30:29.431Z,50.60
2022-12-03T22:35:32.622Z,58.10
2022-12-03T22:40:39.678Z,56.80
2022-12-03T22:45:42.896Z,55.70
2022-12-03T22:50:47.867Z,56.40
2022-12-03T22:55:59.172Z,62.10
2022-12-03T23:01:03.094Z,51.50
2022-12-03T23:06:11.236Z,61.90
2022-12-03T23:11:14.843Z,60.30
2022-12-03T23:16:21.274Z,56.80
2022-12-03T23:21:29.920Z,58.80
2022-12-03T23:26:37.648Z,47.10
2022-12-03T23:31:40.982Z,58.80
2022-12-03T23:36:44.253Z,61.50
2022-12-03T23:41:51.260Z,52.20
2022-12-03T23:46:54.483Z,57.50
2022-12-03T23:51:57.765Z,50.60
2022-12-03T23:57:00.974Z,61.80
